aviador You're here:

KPNS Decoded Metar

PENSACOLA in FL, USA
Report Time2017-09-24 00:53:00
UTC Time2017-09-24 01:21:46
Flight Rules vfr VFR
WindCalm
Visibility9999 m
Phenomena:N/A
Clouds:N/A
Expected CloudBase > 2,400 ft AGL from Temp-Dew spread
CeilingNone
Temp27°C (ISA +12)
Dew Point21°C (70% RH)
Heat Index28.9°C
QNH1014 hPa
Density Alt1,831 ft
Elevation125 ft
Report Wrong Elevation
Raw Report
METAR KPNS 240053Z 00000KT 10SM CLR 27/21 A2993 RMK AO2 SLP135 T02720211=

Extra information for KPNS:More info

Metar Taf Metar & Taf Last 4 Metars F.Rules Stats Wind Profile Meteogram Temp Stats Airport Information Weather charts Add Link Nearby VenuesMetar ALERT Operation Metar Decoded Social comments

AIRNAV info for KPNS